Wilson Heron — 9HJW9 — position and weather

sailwx.info

Track history (hours):
 
Tides and Currents Weather Stations Pressure Air Temp Water Temp Dewpoint Dewpoint Depression Visibility Wind Speed Wind Dir Waves Ship Positions

Wilson Heron

Last reported at 2018-Jan-22 19:48 UTC. Time now 2018-Jan-22 22:16 UTC.
Position N 38°50' E 001°23'.

Length 91 m; draft 3.9 m.

Type: Cargo ship. MMSI: 249075000.

Date/timePositionNaut miles runAvg speedWind from/ knotsBaromVisibWave heightAir tempDewpointWater temp
2018-Jan-22 19:48N 38°50' E 001°23'0 0.0
2018-Jan-22 19:27N 38°50' E 001°23'0 0.0
2018-Jan-22 11:57N 38°50' E 001°23'0 0.0
2018-Jan-22 05:57N 38°50' E 001°23'0 0.0
2018-Jan-22 05:21N 38°50' E 001°23'0 0.0
2018-Jan-22 04:57N 38°50' E 001°23'0 0.0
2018-Jan-22 04:27N 38°50' E 001°23'0 0.0
2018-Jan-22 03:03N 38°50' E 001°23'0 0.0
2018-Jan-22 02:45N 38°50' E 001°23'0 0.0
2018-Jan-22 02:21N 38°50' E 001°23'0 0.0
2018-Jan-22 02:00N 38°50' E 001°23'0 0.0
2018-Jan-22 01:27N 38°50' E 001°23'0 0.0
2018-Jan-22 00:57N 38°50' E 001°23'0 0.0
2018-Jan-22 00:27N 38°50' E 001°23'0 0.0
2018-Jan-21 23:51N 38°50' E 001°23'0 0.0
2018-Jan-21 23:21N 38°50' E 001°23'0 0.0
2018-Jan-21 22:51N 38°50' E 001°23'0 0.0
2018-Jan-21 17:22N 38°50' E 001°23'0 0.0
2018-Jan-21 16:58N 38°50' E 001°23'0 0.0
2018-Jan-21 16:30N 38°50' E 001°23'0 0.0
2018-Jan-21 15:59N 38°50' E 001°23'0 0.0
2018-Jan-21 15:30N 38°50' E 001°23'0 0.0
2018-Jan-21 15:00N 38°50' E 001°23'0 0.0
2018-Jan-21 14:28N 38°50' E 001°23'0 0.0
2018-Jan-21 13:57N 38°50' E 001°23'0 0.0
2018-Jan-21 13:30N 38°50' E 001°23'0 0.0
2018-Jan-21 12:59N 38°50' E 001°23'0 0.0
2018-Jan-21 12:30N 38°50' E 001°23'0 0.0
2018-Jan-21 11:48N 38°50' E 001°23'0 0.3
2018-Jan-21 11:27N 38°50' E 001°23'2 5.1
2018-Jan-21 10:58N 38°48' E 001°25'510.1
2018-Jan-21 10:29N 38°52' E 001°28'0 0.3
2018-Jan-21 09:56N 38°52' E 001°28'0 0.1
2018-Jan-21 09:29N 38°52' E 001°28'0 0.0
2018-Jan-21 08:59N 38°52' E 001°28'1 2.1
2018-Jan-21 08:30N 38°51' E 001°28'4 7.5
2018-Jan-21 08:00N 38°48' E 001°25'8311.6
2018-Jan-21 00:49N 37°55' E 000°03'411.5
2018-Jan-21 00:28N 37°53' W 000°01'511.3
2018-Jan-21 00:00N 37°50' W 000°06'611.2
2018-Jan-20 23:30N 37°46' W 000°12'611.1
2018-Jan-20 23:00N 37°42' W 000°17'611.3
2018-Jan-20 22:30N 37°39' W 000°23'611.4
2018-Jan-20 22:00N 37°35' W 000°28'611.6
2018-Jan-20 21:30N 37°31' W 000°34'511.0
2018-Jan-20 21:00N 37°28' W 000°39'611.7
2018-Jan-20 20:30N 37°24' W 000°44'611.7
2018-Jan-20 20:00N 37°20' W 000°49'611.7
2018-Jan-20 19:30N 37°16' W 000°55'611.5
2018-Jan-20 19:00N 37°12' W 001°01'611.6
2018-Jan-20 18:30N 37°08' W 001°06'611.6
2018-Jan-20 18:00N 37°05' W 001°12'611.6
2018-Jan-20 17:30N 37°01' W 001°17'611.5
2018-Jan-20 17:00N 36°57' W 001°23'611.8
2018-Jan-20 16:30N 36°53' W 001°28'611.6
2018-Jan-20 16:00N 36°49' W 001°34'611.6
2018-Jan-20 15:30N 36°45' W 001°39'611.1
2018-Jan-20 15:00N 36°42' W 001°44'510.3
2018-Jan-20 14:30N 36°38' W 001°49'510.2
2018-Jan-20 14:00N 36°35' W 001°54'510.0
2018-Jan-20 13:30N 36°32' W 001°58'510.3
2018-Jan-20 13:00N 36°28' W 002°03'510.8
2018-Jan-20 12:30N 36°25' W 002°08'510.7
2018-Jan-20 12:00N 36°22' W 002°14'611.5
2018-Jan-20 11:30N 36°21' W 002°21'611.8
2018-Jan-20 11:00N 36°20' W 002°28'611.7
2018-Jan-20 10:30N 36°20' W 002°36'611.6
2018-Jan-20 10:00N 36°19' W 002°43'611.6
2018-Jan-20 09:30N 36°18' W 002°50'611.8
2018-Jan-20 09:00N 36°17' W 002°57'611.5
2018-Jan-20 08:30N 36°16' W 003°04'611.4
2018-Jan-20 08:00N 36°15' W 003°11'611.5
2018-Jan-20 07:30N 36°15' W 003°18'612.6
2018-Jan-20 07:00N 36°14' W 003°26'613.0
2018-Jan-20 06:30N 36°13' W 003°34'713.3
2018-Jan-20 06:00N 36°12' W 003°42'713.8
2018-Jan-20 05:30N 36°10' W 003°50'714.0
2018-Jan-20 05:00N 36°09' W 003°59'714.1
2018-Jan-20 04:30N 36°08' W 004°07'714.4
2018-Jan-20 04:00N 36°07' W 004°16'714.3
2018-Jan-20 03:30N 36°06' W 004°25'714.0
2018-Jan-20 03:00N 36°05' W 004°33'713.3
2018-Jan-20 02:31N 36°04' W 004°42'2213.2
2018-Jan-20 00:48N 36°01' W 005°09'412.4
2018-Jan-20 00:31N 36°01' W 005°14'711.3
2018-Jan-19 23:56N 36°02' W 005°21'612.2
2018-Jan-19 23:27N 36°08' W 005°24'3 6.7
2018-Jan-19 23:00N 36°11' W 005°25'0 0.0
2018-Jan-19 22:30N 36°11' W 005°25'0 0.0
2018-Jan-19 22:00N 36°11' W 005°25'0 0.0
2018-Jan-19 21:30N 36°11' W 005°25'0 0.0
2018-Jan-19 21:00N 36°11' W 005°25'0 0.0
2018-Jan-19 20:30N 36°11' W 005°25'0 0.0
2018-Jan-19 20:00N 36°11' W 005°25'0 0.0
2018-Jan-19 19:30N 36°11' W 005°25'0 0.0
2018-Jan-19 19:00N 36°11' W 005°25'0 0.0
2018-Jan-19 18:30N 36°11' W 005°25'0 0.0
2018-Jan-19 18:00N 36°11' W 005°25'0 0.0
2018-Jan-19 17:30N 36°11' W 005°25'0 0.0
2018-Jan-19 17:00N 36°11' W 005°25'0 0.0
2018-Jan-19 16:30N 36°11' W 005°25'0 0.0
2018-Jan-19 16:00N 36°11' W 005°25'0 0.0
2018-Jan-19 15:30N 36°11' W 005°25'0 0.0
2018-Jan-19 15:00N 36°11' W 005°25'0 0.0
2018-Jan-19 14:30N 36°11' W 005°25'0 0.0
2018-Jan-19 14:00N 36°11' W 005°25'0 0.0
2018-Jan-19 13:30N 36°11' W 005°25'0 0.0
2018-Jan-19 13:00N 36°11' W 005°25'0 0.0
2018-Jan-19 12:30N 36°11' W 005°25'0 0.0
2018-Jan-19 12:00N 36°11' W 005°25'0 0.0
2018-Jan-19 11:30N 36°11' W 005°25'0 0.0
2018-Jan-19 11:00N 36°11' W 005°25'0 0.0
2018-Jan-19 10:30N 36°11' W 005°25'0 0.0
2018-Jan-19 10:00N 36°11' W 005°25'0 0.0
2018-Jan-19 09:30N 36°11' W 005°25'0 0.0
2018-Jan-19 08:57N 36°11' W 005°25'0 0.0
2018-Jan-19 08:30N 36°11' W 005°25'0 0.0
2018-Jan-19 08:00N 36°11' W 005°25'0 0.0
2018-Jan-19 07:30N 36°11' W 005°25'0 0.0
2018-Jan-19 07:00N 36°11' W 005°25'0 0.0
2018-Jan-19 06:30N 36°11' W 005°25'0 0.0
2018-Jan-19 06:00N 36°11' W 005°25'0 0.0
2018-Jan-19 05:30N 36°11' W 005°25'0 0.0
2018-Jan-19 05:00N 36°11' W 005°25'0 0.0
2018-Jan-19 04:30N 36°11' W 005°25'0 0.0
2018-Jan-19 04:00N 36°11' W 005°25'0 0.0
2018-Jan-19 03:30N 36°11' W 005°25'0 0.0
2018-Jan-19 03:00N 36°11' W 005°25'0 0.0
2018-Jan-19 02:30N 36°11' W 005°25'0 0.0
2018-Jan-19 02:00N 36°11' W 005°25'0 0.0
2018-Jan-19 01:30N 36°11' W 005°25'0 0.0
2018-Jan-19 01:00N 36°11' W 005°25'0 0.0
2018-Jan-19 00:30N 36°11' W 005°25'0 0.0
2018-Jan-19 00:00N 36°11' W 005°25'0 0.0
2018-Jan-18 23:30N 36°11' W 005°25'0 0.0
2018-Jan-18 22:57N 36°11' W 005°25'0 0.0
2018-Jan-18 22:30N 36°11' W 005°25'0 0.0
2018-Jan-18 22:00N 36°11' W 005°25'0 0.0
2018-Jan-18 21:30N 36°11' W 005°25'0 0.0
2018-Jan-18 21:00N 36°11' W 005°25'0 0.0
2018-Jan-18 20:30N 36°11' W 005°25'0 0.0
2018-Jan-18 20:00N 36°11' W 005°25'0 0.0
2018-Jan-18 19:30N 36°11' W 005°25'0 0.0
2018-Jan-18 19:00N 36°11' W 005°25'0 0.0
2018-Jan-18 18:30N 36°11' W 005°25'0 0.0
2018-Jan-18 17:57N 36°11' W 005°25'0 0.0
2018-Jan-18 17:30N 36°11' W 005°25'0 0.0
2018-Jan-18 17:00N 36°11' W 005°25'0 0.0
2018-Jan-18 16:30N 36°11' W 005°25'0 0.0
2018-Jan-18 16:00N 36°11' W 005°25'0 0.0
2018-Jan-18 15:30N 36°11' W 005°25'0 0.0
2018-Jan-18 15:00N 36°11' W 005°25'0 0.0
2018-Jan-18 14:30N 36°11' W 005°25'0 0.0
2018-Jan-18 14:00N 36°11' W 005°25'0 0.0
2018-Jan-18 13:30N 36°11' W 005°25'0 0.0
2018-Jan-18 13:00N 36°11' W 005°25'0 0.0
2018-Jan-18 12:30N 36°11' W 005°25'0 0.0
2018-Jan-18 12:00N 36°11' W 005°25'0 0.0
2018-Jan-18 11:30N 36°11' W 005°25'0 0.0
2018-Jan-18 11:00N 36°11' W 005°25'0 0.0
2018-Jan-18 10:30N 36°11' W 005°25'1 1.8
2018-Jan-18 10:00N 36°10' W 005°26'0 0.2
2018-Jan-18 09:20N 36°10' W 005°26'0 0.0
2018-Jan-18 08:56N 36°10' W 005°26'0 0.0
2018-Jan-18 08:26N 36°10' W 005°26'0 0.0
2018-Jan-18 07:56N 36°10' W 005°26'0 0.0
2018-Jan-18 07:29N 36°10' W 005°26'0 0.0
2018-Jan-18 06:59N 36°10' W 005°26'0 0.0
2018-Jan-18 06:29N 36°10' W 005°26'0 0.0
2018-Jan-18 05:59N 36°10' W 005°26'0 0.0
2018-Jan-18 05:29N 36°10' W 005°26'0 0.0
2018-Jan-18 04:59N 36°10' W 005°26'0 0.0
2018-Jan-18 04:26N 36°10' W 005°26'0 0.0
2018-Jan-18 03:59N 36°10' W 005°26'0 0.0
2018-Jan-18 03:29N 36°10' W 005°26'0 0.0
2018-Jan-18 02:59N 36°10' W 005°26'0 0.0
2018-Jan-18 02:29N 36°10' W 005°26'0 0.0
2018-Jan-18 01:56N 36°10' W 005°26'0 0.0
2018-Jan-18 01:29N 36°10' W 005°26'0 0.1
2018-Jan-18 00:56N 36°10' W 005°26'0 0.0
2018-Jan-17 23:59N 36°10' W 005°26'0 0.0
2018-Jan-17 23:56N 36°10' W 005°26'  
Track history (hours):
 
Tides and Currents Weather Stations Pressure Air Temp Water Temp Dewpoint Dewpoint Depression Visibility Wind Speed Wind Dir Waves Ship Positions

Wilson Heron

Last reported at 2018-Jan-22 19:48 UTC. Time now 2018-Jan-22 22:16 UTC.
Position N 38°50' E 001°23'.

Length 91 m; draft 3.9 m.

Type: Cargo ship. MMSI: 249075000.

Date/timePositionNaut miles runAvg speedWind from/ knotsBaromVisibWave heightAir tempDewpointWater temp
2018-Jan-22 19:48N 38°50' E 001°23'0 0.0
2018-Jan-22 19:27N 38°50' E 001°23'0 0.0
2018-Jan-22 11:57N 38°50' E 001°23'0 0.0
2018-Jan-22 05:57N 38°50' E 001°23'0 0.0
2018-Jan-22 05:21N 38°50' E 001°23'0 0.0
2018-Jan-22 04:57N 38°50' E 001°23'0 0.0
2018-Jan-22 04:27N 38°50' E 001°23'0 0.0
2018-Jan-22 03:03N 38°50' E 001°23'0 0.0
2018-Jan-22 02:45N 38°50' E 001°23'0 0.0
2018-Jan-22 02:21N 38°50' E 001°23'0 0.0
2018-Jan-22 02:00N 38°50' E 001°23'0 0.0
2018-Jan-22 01:27N 38°50' E 001°23'0 0.0
2018-Jan-22 00:57N 38°50' E 001°23'0 0.0
2018-Jan-22 00:27N 38°50' E 001°23'0 0.0
2018-Jan-21 23:51N 38°50' E 001°23'0 0.0
2018-Jan-21 23:21N 38°50' E 001°23'0 0.0
2018-Jan-21 22:51N 38°50' E 001°23'0 0.0
2018-Jan-21 17:22N 38°50' E 001°23'0 0.0
2018-Jan-21 16:58N 38°50' E 001°23'0 0.0
2018-Jan-21 16:30N 38°50' E 001°23'0 0.0
2018-Jan-21 15:59N 38°50' E 001°23'0 0.0
2018-Jan-21 15:30N 38°50' E 001°23'0 0.0
2018-Jan-21 15:00N 38°50' E 001°23'0 0.0
2018-Jan-21 14:28N 38°50' E 001°23'0 0.0
2018-Jan-21 13:57N 38°50' E 001°23'0 0.0
2018-Jan-21 13:30N 38°50' E 001°23'0 0.0
2018-Jan-21 12:59N 38°50' E 001°23'0 0.0
2018-Jan-21 12:30N 38°50' E 001°23'0 0.0
2018-Jan-21 11:48N 38°50' E 001°23'0 0.3
2018-Jan-21 11:27N 38°50' E 001°23'2 5.1
2018-Jan-21 10:58N 38°48' E 001°25'510.1
2018-Jan-21 10:29N 38°52' E 001°28'0 0.3
2018-Jan-21 09:56N 38°52' E 001°28'0 0.1
2018-Jan-21 09:29N 38°52' E 001°28'0 0.0
2018-Jan-21 08:59N 38°52' E 001°28'1 2.1
2018-Jan-21 08:30N 38°51' E 001°28'4 7.5
2018-Jan-21 08:00N 38°48' E 001°25'8311.6
2018-Jan-21 00:49N 37°55' E 000°03'411.5
2018-Jan-21 00:28N 37°53' W 000°01'511.3
2018-Jan-21 00:00N 37°50' W 000°06'611.2
2018-Jan-20 23:30N 37°46' W 000°12'611.1
2018-Jan-20 23:00N 37°42' W 000°17'611.3
2018-Jan-20 22:30N 37°39' W 000°23'611.4
2018-Jan-20 22:00N 37°35' W 000°28'611.6
2018-Jan-20 21:30N 37°31' W 000°34'511.0
2018-Jan-20 21:00N 37°28' W 000°39'611.7
2018-Jan-20 20:30N 37°24' W 000°44'611.7
2018-Jan-20 20:00N 37°20' W 000°49'611.7
2018-Jan-20 19:30N 37°16' W 000°55'611.5
2018-Jan-20 19:00N 37°12' W 001°01'611.6
2018-Jan-20 18:30N 37°08' W 001°06'611.6
2018-Jan-20 18:00N 37°05' W 001°12'611.6
2018-Jan-20 17:30N 37°01' W 001°17'611.5
2018-Jan-20 17:00N 36°57' W 001°23'611.8
2018-Jan-20 16:30N 36°53' W 001°28'611.6
2018-Jan-20 16:00N 36°49' W 001°34'611.6
2018-Jan-20 15:30N 36°45' W 001°39'611.1
2018-Jan-20 15:00N 36°42' W 001°44'510.3
2018-Jan-20 14:30N 36°38' W 001°49'510.2
2018-Jan-20 14:00N 36°35' W 001°54'510.0
2018-Jan-20 13:30N 36°32' W 001°58'510.3
2018-Jan-20 13:00N 36°28' W 002°03'510.8
2018-Jan-20 12:30N 36°25' W 002°08'510.7
2018-Jan-20 12:00N 36°22' W 002°14'611.5
2018-Jan-20 11:30N 36°21' W 002°21'611.8
2018-Jan-20 11:00N 36°20' W 002°28'611.7
2018-Jan-20 10:30N 36°20' W 002°36'611.6
2018-Jan-20 10:00N 36°19' W 002°43'611.6
2018-Jan-20 09:30N 36°18' W 002°50'611.8
2018-Jan-20 09:00N 36°17' W 002°57'611.5
2018-Jan-20 08:30N 36°16' W 003°04'611.4
2018-Jan-20 08:00N 36°15' W 003°11'611.5
2018-Jan-20 07:30N 36°15' W 003°18'612.6
2018-Jan-20 07:00N 36°14' W 003°26'613.0
2018-Jan-20 06:30N 36°13' W 003°34'713.3
2018-Jan-20 06:00N 36°12' W 003°42'713.8
2018-Jan-20 05:30N 36°10' W 003°50'714.0
2018-Jan-20 05:00N 36°09' W 003°59'714.1
2018-Jan-20 04:30N 36°08' W 004°07'714.4
2018-Jan-20 04:00N 36°07' W 004°16'714.3
2018-Jan-20 03:30N 36°06' W 004°25'714.0
2018-Jan-20 03:00N 36°05' W 004°33'713.3
2018-Jan-20 02:31N 36°04' W 004°42'2213.2
2018-Jan-20 00:48N 36°01' W 005°09'412.4
2018-Jan-20 00:31N 36°01' W 005°14'711.3
2018-Jan-19 23:56N 36°02' W 005°21'612.2
2018-Jan-19 23:27N 36°08' W 005°24'3 6.7
2018-Jan-19 23:00N 36°11' W 005°25'0 0.0
2018-Jan-19 22:30N 36°11' W 005°25'0 0.0
2018-Jan-19 22:00N 36°11' W 005°25'0 0.0
2018-Jan-19 21:30N 36°11' W 005°25'0 0.0
2018-Jan-19 21:00N 36°11' W 005°25'0 0.0
2018-Jan-19 20:30N 36°11' W 005°25'0 0.0
2018-Jan-19 20:00N 36°11' W 005°25'0 0.0
2018-Jan-19 19:30N 36°11' W 005°25'0 0.0
2018-Jan-19 19:00N 36°11' W 005°25'0 0.0
2018-Jan-19 18:30N 36°11' W 005°25'0 0.0
2018-Jan-19 18:00N 36°11' W 005°25'0 0.0
2018-Jan-19 17:30N 36°11' W 005°25'0 0.0
2018-Jan-19 17:00N 36°11' W 005°25'0 0.0
2018-Jan-19 16:30N 36°11' W 005°25'0 0.0
2018-Jan-19 16:00N 36°11' W 005°25'0 0.0
2018-Jan-19 15:30N 36°11' W 005°25'0 0.0
2018-Jan-19 15:00N 36°11' W 005°25'0 0.0
2018-Jan-19 14:30N 36°11' W 005°25'0 0.0
2018-Jan-19 14:00N 36°11' W 005°25'0 0.0
2018-Jan-19 13:30N 36°11' W 005°25'0 0.0
2018-Jan-19 13:00N 36°11' W 005°25'0 0.0
2018-Jan-19 12:30N 36°11' W 005°25'0 0.0
2018-Jan-19 12:00N 36°11' W 005°25'0 0.0
2018-Jan-19 11:30N 36°11' W 005°25'0 0.0
2018-Jan-19 11:00N 36°11' W 005°25'0 0.0
2018-Jan-19 10:30N 36°11' W 005°25'0 0.0
2018-Jan-19 10:00N 36°11' W 005°25'0 0.0
2018-Jan-19 09:30N 36°11' W 005°25'0 0.0
2018-Jan-19 08:57N 36°11' W 005°25'0 0.0
2018-Jan-19 08:30N 36°11' W 005°25'0 0.0
2018-Jan-19 08:00N 36°11' W 005°25'0 0.0
2018-Jan-19 07:30N 36°11' W 005°25'0 0.0
2018-Jan-19 07:00N 36°11' W 005°25'0 0.0
2018-Jan-19 06:30N 36°11' W 005°25'0 0.0
2018-Jan-19 06:00N 36°11' W 005°25'0 0.0
2018-Jan-19 05:30N 36°11' W 005°25'0 0.0
2018-Jan-19 05:00N 36°11' W 005°25'0 0.0
2018-Jan-19 04:30N 36°11' W 005°25'0 0.0
2018-Jan-19 04:00N 36°11' W 005°25'0 0.0
2018-Jan-19 03:30N 36°11' W 005°25'0 0.0
2018-Jan-19 03:00N 36°11' W 005°25'0 0.0
2018-Jan-19 02:30N 36°11' W 005°25'0 0.0
2018-Jan-19 02:00N 36°11' W 005°25'0 0.0
2018-Jan-19 01:30N 36°11' W 005°25'0 0.0
2018-Jan-19 01:00N 36°11' W 005°25'0 0.0
2018-Jan-19 00:30N 36°11' W 005°25'0 0.0
2018-Jan-19 00:00N 36°11' W 005°25'0 0.0
2018-Jan-18 23:30N 36°11' W 005°25'0 0.0
2018-Jan-18 22:57N 36°11' W 005°25'0 0.0
2018-Jan-18 22:30N 36°11' W 005°25'0 0.0
2018-Jan-18 22:00N 36°11' W 005°25'0 0.0
2018-Jan-18 21:30N 36°11' W 005°25'0 0.0
2018-Jan-18 21:00N 36°11' W 005°25'0 0.0
2018-Jan-18 20:30N 36°11' W 005°25'0 0.0
2018-Jan-18 20:00N 36°11' W 005°25'0 0.0
2018-Jan-18 19:30N 36°11' W 005°25'0 0.0
2018-Jan-18 19:00N 36°11' W 005°25'0 0.0
2018-Jan-18 18:30N 36°11' W 005°25'0 0.0
2018-Jan-18 17:57N 36°11' W 005°25'0 0.0
2018-Jan-18 17:30N 36°11' W 005°25'0 0.0
2018-Jan-18 17:00N 36°11' W 005°25'0 0.0
2018-Jan-18 16:30N 36°11' W 005°25'0 0.0
2018-Jan-18 16:00N 36°11' W 005°25'0 0.0
2018-Jan-18 15:30N 36°11' W 005°25'0 0.0
2018-Jan-18 15:00N 36°11' W 005°25'0 0.0
2018-Jan-18 14:30N 36°11' W 005°25'0 0.0
2018-Jan-18 14:00N 36°11' W 005°25'0 0.0
2018-Jan-18 13:30N 36°11' W 005°25'0 0.0
2018-Jan-18 13:00N 36°11' W 005°25'0 0.0
2018-Jan-18 12:30N 36°11' W 005°25'0 0.0
2018-Jan-18 12:00N 36°11' W 005°25'0 0.0
2018-Jan-18 11:30N 36°11' W 005°25'0 0.0
2018-Jan-18 11:00N 36°11' W 005°25'0 0.0
2018-Jan-18 10:30N 36°11' W 005°25'1 1.8
2018-Jan-18 10:00N 36°10' W 005°26'0 0.2
2018-Jan-18 09:20N 36°10' W 005°26'0 0.0
2018-Jan-18 08:56N 36°10' W 005°26'0 0.0
2018-Jan-18 08:26N 36°10' W 005°26'0 0.0
2018-Jan-18 07:56N 36°10' W 005°26'0 0.0
2018-Jan-18 07:29N 36°10' W 005°26'0 0.0
2018-Jan-18 06:59N 36°10' W 005°26'0 0.0
2018-Jan-18 06:29N 36°10' W 005°26'0 0.0
2018-Jan-18 05:59N 36°10' W 005°26'0 0.0
2018-Jan-18 05:29N 36°10' W 005°26'0 0.0
2018-Jan-18 04:59N 36°10' W 005°26'0 0.0
2018-Jan-18 04:26N 36°10' W 005°26'0 0.0
2018-Jan-18 03:59N 36°10' W 005°26'0 0.0
2018-Jan-18 03:29N 36°10' W 005°26'0 0.0
2018-Jan-18 02:59N 36°10' W 005°26'0 0.0
2018-Jan-18 02:29N 36°10' W 005°26'0 0.0
2018-Jan-18 01:56N 36°10' W 005°26'0 0.0
2018-Jan-18 01:29N 36°10' W 005°26'0 0.1
2018-Jan-18 00:56N 36°10' W 005°26'0 0.0
2018-Jan-17 23:59N 36°10' W 005°26'0 0.0
2018-Jan-17 23:56N 36°10' W 005°26'  

Dump ship's entire track history